createdAt,value
2018-08-16T00:00:56.244Z,0.00
2018-08-16T00:01:56.024Z,0.00
2018-08-16T00:02:56.542Z,0.00
2018-08-16T00:03:55.954Z,0.00
2018-08-16T00:04:56.698Z,0.00
2018-08-16T00:05:56.306Z,0.00
2018-08-16T00:06:55.775Z,0.00
2018-08-16T00:07:56.662Z,0.00
2018-08-16T00:08:56.123Z,0.00
2018-08-16T00:09:55.512Z,0.00
2018-08-16T00:11:17.644Z,0.00
2018-08-16T00:12:18.524Z,0.00
2018-08-16T00:13:18.503Z,0.00
2018-08-16T00:14:18.632Z,0.00
2018-08-16T00:15:18.454Z,0.00
2018-08-16T00:16:18.136Z,0.00
2018-08-16T00:17:40.231Z,0.00
2018-08-16T00:18:39.908Z,0.00
2018-08-16T00:19:39.541Z,0.00
2018-08-16T00:21:01.888Z,0.00
2018-08-16T00:22:02.679Z,0.00
2018-08-16T00:23:02.703Z,0.00
2018-08-16T00:24:02.194Z,0.00
2018-08-16T00:25:01.760Z,0.00
2018-08-16T00:26:02.295Z,0.00
2018-08-16T00:27:01.771Z,0.00
2018-08-16T00:28:02.332Z,0.00
2018-08-16T00:29:01.845Z,0.00
2018-08-16T00:30:01.861Z,0.00
2018-08-16T00:31:02.597Z,0.00
2018-08-16T00:32:02.047Z,0.00
2018-08-16T00:33:01.543Z,0.00
2018-08-16T00:34:02.208Z,0.00
2018-08-16T00:35:01.549Z,0.00
2018-08-16T00:36:01.944Z,0.00
2018-08-16T00:37:01.555Z,0.00
2018-08-16T00:38:01.969Z,0.00
2018-08-16T00:39:01.554Z,0.00
2018-08-16T00:40:02.146Z,0.00
2018-08-16T00:41:01.554Z,0.00
2018-08-16T00:42:23.741Z,0.00
2018-08-16T00:43:45.895Z,0.00
2018-08-16T00:44:46.361Z,0.00
2018-08-16T00:45:46.115Z,0.00
2018-08-16T00:46:46.778Z,0.00
2018-08-16T00:48:08.165Z,0.00
2018-08-16T00:49:08.985Z,0.00
2018-08-16T00:50:08.474Z,0.00
2018-08-16T00:51:08.348Z,0.00
2018-08-16T00:52:08.065Z,0.00
2018-08-16T00:53:31.967Z,0.00
2018-08-16T00:54:31.716Z,0.00
2018-08-16T00:55:53.169Z,0.00
2018-08-16T00:56:53.075Z,0.00
2018-08-16T00:57:53.708Z,0.00
2018-08-16T00:59:14.477Z,0.00
2018-08-16T01:00:36.187Z,0.00
2018-08-16T01:01:36.861Z,0.00
2018-08-16T01:02:36.637Z,0.00
2018-08-16T01:03:36.772Z,0.00
2018-08-16T01:04:36.744Z,0.00
2018-08-16T01:06:41.613Z,0.00
2018-08-16T01:07:42.698Z,0.00
2018-08-16T01:08:42.135Z,0.00
2018-08-16T01:09:41.776Z,0.00
2018-08-16T01:10:42.475Z,0.00
2018-08-16T01:11:42.349Z,0.00
2018-08-16T01:12:42.193Z,0.00
2018-08-16T01:13:41.823Z,0.00
2018-08-16T01:14:42.595Z,0.00
2018-08-16T01:15:42.531Z,0.00
2018-08-16T01:17:03.953Z,0.00
2018-08-16T01:18:04.713Z,0.00
2018-08-16T01:19:04.672Z,0.00
2018-08-16T01:20:04.408Z,0.00
2018-08-16T01:21:03.851Z,0.00
2018-08-16T01:22:04.536Z,0.00
2018-08-16T01:23:04.530Z,0.00
2018-08-16T01:24:04.103Z,0.00
2018-08-16T01:25:03.726Z,0.00
2018-08-16T01:26:04.619Z,0.00
2018-08-16T01:27:04.724Z,0.00
2018-08-16T01:28:04.378Z,0.00
2018-08-16T01:29:04.020Z,0.00
2018-08-16T01:30:04.388Z,0.00
2018-08-16T01:31:03.840Z,0.00
2018-08-16T01:32:04.763Z,0.00
2018-08-16T01:33:04.442Z,0.00
2018-08-16T01:34:04.065Z,0.00
2018-08-16T01:35:03.577Z,0.00
2018-08-16T01:36:04.089Z,0.00
2018-08-16T01:37:03.952Z,0.00
2018-08-16T01:38:03.560Z,0.00
2018-08-16T01:39:04.259Z,0.00
2018-08-16T01:40:04.047Z,0.00
2018-08-16T01:41:03.677Z,0.00
2018-08-16T01:42:04.647Z,0.00
2018-08-16T01:43:04.936Z,0.00
2018-08-16T01:44:03.960Z,0.00
2018-08-16T01:45:04.552Z,0.00
2018-08-16T01:46:04.215Z,0.00
2018-08-16T01:47:03.854Z,0.00
2018-08-16T01:48:04.403Z,0.00
2018-08-16T01:49:03.805Z,0.00
2018-08-16T01:50:04.196Z,0.00
2018-08-16T01:51:03.576Z,0.00
2018-08-16T01:52:04.248Z,0.00
2018-08-16T01:53:03.891Z,0.00
2018-08-16T01:54:03.780Z,0.00
2018-08-16T01:55:04.498Z,0.00
2018-08-16T01:56:04.215Z,0.00
2018-08-16T01:57:03.868Z,0.00
2018-08-16T01:58:03.837Z,0.00
2018-08-16T01:59:04.305Z,0.00
2018-08-16T02:00:03.918Z,0.00
2018-08-16T02:01:04.445Z,0.00
2018-08-16T02:02:04.032Z,0.00
2018-08-16T02:03:24.575Z,0.00
2018-08-16T02:04:25.493Z,0.00
2018-08-16T02:05:46.656Z,0.00
2018-08-16T02:06:47.450Z,0.00
2018-08-16T02:08:08.139Z,0.00
2018-08-16T02:09:08.720Z,0.00
2018-08-16T02:10:08.313Z,0.00
2018-08-16T02:11:08.788Z,0.00
2018-08-16T02:12:08.830Z,0.00
2018-08-16T02:13:08.745Z,0.00
2018-08-16T02:14:08.839Z,0.00
2018-08-16T02:15:08.525Z,0.00
2018-08-16T02:16:08.952Z,0.00
2018-08-16T02:17:08.625Z,0.00
2018-08-16T02:18:08.354Z,0.00
2018-08-16T02:19:29.892Z,0.00
2018-08-16T02:20:30.680Z,0.00
2018-08-16T02:21:30.338Z,0.00
2018-08-16T02:22:31.075Z,0.00
2018-08-16T02:24:14.238Z,0.00
2018-08-16T02:25:15.016Z,0.00
2018-08-16T02:26:14.717Z,0.00
2018-08-16T02:27:35.914Z,0.00
2018-08-16T02:28:36.683Z,0.00
2018-08-16T02:29:36.091Z,0.00
2018-08-16T02:30:36.518Z,0.00
2018-08-16T02:31:36.180Z,0.00
2018-08-16T02:32:36.949Z,0.00
2018-08-16T02:33:36.569Z,0.00
2018-08-16T02:34:57.386Z,0.00
2018-08-16T02:36:19.210Z,0.00
2018-08-16T02:37:19.983Z,0.00
2018-08-16T02:38:20.421Z,0.00
2018-08-16T02:39:20.138Z,0.00
2018-08-16T02:40:19.386Z,0.00
2018-08-16T02:41:41.432Z,0.00
2018-08-16T02:42:41.941Z,0.00
2018-08-16T02:44:03.357Z,0.00
2018-08-16T02:45:04.087Z,0.00
2018-08-16T02:46:03.467Z,0.00
2018-08-16T02:47:04.048Z,0.00
2018-08-16T02:48:03.581Z,0.00
2018-08-16T02:49:03.457Z,0.00
2018-08-16T02:50:03.916Z,0.00
2018-08-16T02:51:25.218Z,0.00
2018-08-16T02:52:25.651Z,0.00
2018-08-16T02:53:26.568Z,0.00
2018-08-16T02:54:47.336Z,0.00
2018-08-16T02:55:48.181Z,0.00
2018-08-16T02:57:09.678Z,1.00
2018-08-16T02:58:10.497Z,0.00
2018-08-16T02:59:52.939Z,0.00
2018-08-16T03:01:10.935Z,0.00
2018-08-16T03:02:21.439Z,0.00
2018-08-16T03:03:18.334Z,0.00
2018-08-16T03:04:18.208Z,0.00
2018-08-16T03:05:17.699Z,0.00
2018-08-16T03:06:18.423Z,0.00
2018-08-16T03:07:17.878Z,0.00
2018-08-16T03:08:17.445Z,0.00
2018-08-16T03:09:18.094Z,0.00
2018-08-16T03:10:17.774Z,0.00
2018-08-16T03:11:17.197Z,0.00
2018-08-16T03:12:17.661Z,0.00
2018-08-16T03:13:17.441Z,0.00
2018-08-16T03:14:17.821Z,0.00
2018-08-16T03:15:17.285Z,0.00
2018-08-16T03:16:17.689Z,0.00
2018-08-16T03:17:18.150Z,0.00
2018-08-16T03:18:17.957Z,0.00
2018-08-16T03:19:17.631Z,0.00
2018-08-16T03:20:18.047Z,0.00
2018-08-16T03:21:17.709Z,0.00
2018-08-16T03:22:18.183Z,0.00
2018-08-16T03:23:17.678Z,0.00
2018-08-16T03:24:18.203Z,0.00
2018-08-16T03:25:18.073Z,0.00
2018-08-16T03:26:17.575Z,0.00
2018-08-16T03:27:39.278Z,1.00
2018-08-16T03:28:39.861Z,1.00
2018-08-16T03:29:39.465Z,1.00
2018-08-16T03:31:01.443Z,1.00
2018-08-16T03:32:23.070Z,1.00
2018-08-16T03:33:23.513Z,2.00
2018-08-16T03:34:45.219Z,2.00
2018-08-16T03:35:45.733Z,3.00
2018-08-16T03:36:46.239Z,3.00
2018-08-16T03:37:45.901Z,3.00
2018-08-16T03:38:45.491Z,4.00
2018-08-16T03:39:45.991Z,5.00
2018-08-16T03:40:45.409Z,5.00
2018-08-16T03:41:45.827Z,6.00
2018-08-16T03:42:46.175Z,7.00
2018-08-16T03:43:45.693Z,8.00
2018-08-16T03:44:46.007Z,9.00
2018-08-16T03:45:45.910Z,11.00
2018-08-16T03:46:46.432Z,13.00
2018-08-16T03:47:46.346Z,14.00
2018-08-16T03:48:45.963Z,17.00
2018-08-16T03:49:45.807Z,21.00
2018-08-16T03:50:45.261Z,23.00
2018-08-16T03:51:46.288Z,27.00
2018-08-16T03:52:45.868Z,32.00
2018-08-16T03:53:45.324Z,36.00
2018-08-16T03:54:45.841Z,42.00
2018-08-16T03:55:45.383Z,47.00
2018-08-16T03:57:07.119Z,57.00
2018-08-16T03:58:07.676Z,65.00
2018-08-16T03:59:07.255Z,73.00
2018-08-16T04:00:07.740Z,83.00
2018-08-16T04:01:07.131Z,94.00
2018-08-16T04:02:07.560Z,105.00
2018-08-16T04:03:07.357Z,118.00
2018-08-16T04:04:07.920Z,133.00
2018-08-16T04:05:07.417Z,148.00
2018-08-16T04:06:08.234Z,166.00
2018-08-16T04:07:07.881Z,182.00
2018-08-16T04:08:50.343Z,217.00
2018-08-16T04:10:12.255Z,248.00
2018-08-16T04:11:12.592Z,274.00
2018-08-16T04:12:34.375Z,310.00
2018-08-16T04:13:35.384Z,341.00
2018-08-16T04:14:35.288Z,370.00
2018-08-16T04:15:34.726Z,402.00
2018-08-16T04:16:56.513Z,446.00
2018-08-16T04:17:57.537Z,483.00
2018-08-16T04:18:56.946Z,520.00
2018-08-16T04:19:57.033Z,560.00
2018-08-16T04:20:56.772Z,599.00
2018-08-16T04:21:57.281Z,641.00
2018-08-16T04:22:57.048Z,687.00
2018-08-16T04:23:56.953Z,735.00
2018-08-16T04:24:56.893Z,781.00
2018-08-16T04:25:57.649Z,832.00
2018-08-16T04:26:57.531Z,886.00
2018-08-16T04:27:57.356Z,942.00
2018-08-16T04:28:57.084Z,999.00
2018-08-16T04:29:56.878Z,1057.00
2018-08-16T04:30:56.830Z,1117.00
2018-08-16T04:31:58.227Z,1178.00
2018-08-16T04:32:56.793Z,1242.00
2018-08-16T04:33:57.703Z,1306.00
2018-08-16T04:34:57.582Z,1375.00
2018-08-16T04:35:57.477Z,1449.00
2018-08-16T04:36:57.270Z,1527.00
2018-08-16T04:37:56.919Z,1608.00
2018-08-16T04:38:57.666Z,1690.00
2018-08-16T04:40:19.324Z,1793.00
2018-08-16T04:41:23.440Z,1871.00
2018-08-16T04:42:18.936Z,1948.00
2018-08-16T04:43:19.694Z,2025.00
2018-08-16T04:44:19.250Z,2100.00
2018-08-16T04:45:40.922Z,2213.00
2018-08-16T04:46:44.497Z,2307.00
2018-08-16T04:48:03.116Z,2418.00
2018-08-16T04:49:03.058Z,2499.00
2018-08-16T04:50:03.030Z,2586.00
2018-08-16T04:51:03.009Z,2671.00
2018-08-16T04:52:02.840Z,2763.00
2018-08-16T04:53:03.033Z,2853.00
2018-08-16T04:54:25.897Z,2965.00
2018-08-16T04:55:27.019Z,3037.00
2018-08-16T04:56:25.531Z,3117.00
2018-08-16T04:57:25.503Z,3196.00
2018-08-16T04:58:25.658Z,3257.00
2018-08-16T05:00:14.646Z,3395.00
2018-08-16T05:01:15.861Z,3482.00
2018-08-16T05:02:15.079Z,3576.00
2018-08-16T05:03:16.448Z,3688.00
2018-08-16T05:04:15.102Z,3805.00
2018-08-16T05:05:14.920Z,3923.00
2018-08-16T05:06:14.700Z,4020.00
2018-08-16T05:07:15.511Z,4122.00
2018-08-16T05:08:15.405Z,4191.00
2018-08-16T05:09:15.234Z,4303.00
2018-08-16T05:10:15.154Z,4393.00
2018-08-16T05:11:16.548Z,4464.00
2018-08-16T05:12:15.050Z,4515.00
2018-08-16T05:13:14.958Z,4603.00
2018-08-16T05:14:14.802Z,4711.00
2018-08-16T05:15:36.323Z,4850.00
2018-08-16T05:16:36.977Z,4943.00
2018-08-16T05:17:58.393Z,5076.00
2018-08-16T05:18:57.965Z,5175.00
2018-08-16T05:19:58.676Z,5273.00
2018-08-16T05:20:58.296Z,5371.00
2018-08-16T05:21:58.933Z,5520.00
2018-08-16T05:22:58.621Z,5635.00
2018-08-16T05:23:58.470Z,5691.00
2018-08-16T05:24:58.151Z,5899.00
2018-08-16T05:25:58.626Z,6227.00
2018-08-16T05:26:58.563Z,6301.00
2018-08-16T05:27:58.282Z,6275.00
2018-08-16T05:28:58.274Z,6251.00
2018-08-16T05:29:59.097Z,6244.00
2018-08-16T05:30:58.796Z,6471.00
2018-08-16T05:31:59.553Z,6715.00
2018-08-16T05:32:58.419Z,6763.00
2018-08-16T05:33:57.892Z,7331.00
2018-08-16T05:34:58.632Z,7637.00
2018-08-16T05:36:19.897Z,8192.00
2018-08-16T05:37:20.446Z,8691.00
2018-08-16T05:38:20.625Z,8960.00
2018-08-16T05:39:20.457Z,9103.00
2018-08-16T05:40:20.272Z,8891.00
2018-08-16T05:41:20.228Z,8937.00
2018-08-16T05:42:20.183Z,8992.00
2018-08-16T05:43:19.871Z,9043.00
2018-08-16T05:44:20.448Z,9272.00
2018-08-16T05:45:20.804Z,9616.00
2018-08-16T05:46:20.379Z,9801.00
2018-08-16T05:47:20.024Z,9909.00
2018-08-16T05:48:20.717Z,9953.00
2018-08-16T05:49:42.033Z,10202.00
2018-08-16T05:51:04.633Z,10344.00
2018-08-16T05:51:47.078Z,10347.00
2018-08-16T05:53:31.218Z,10610.00
2018-08-16T05:54:32.388Z,10763.00
2018-08-16T05:55:32.038Z,10662.00
2018-08-16T05:56:31.622Z,10701.00
2018-08-16T05:57:31.299Z,10879.00
2018-08-16T05:58:31.102Z,11053.00
2018-08-16T05:59:31.804Z,11149.00
2018-08-16T06:00:31.442Z,11280.00
2018-08-16T06:01:31.118Z,11410.00
2018-08-16T06:02:31.860Z,11594.00
2018-08-16T06:03:31.416Z,11645.00
2018-08-16T06:04:31.199Z,11717.00
2018-08-16T06:05:31.834Z,11828.00
2018-08-16T06:06:31.451Z,11976.00
2018-08-16T06:07:32.067Z,12040.00
2018-08-16T06:08:32.364Z,12204.00
2018-08-16T06:09:31.952Z,12386.00
2018-08-16T06:10:31.421Z,12520.00
2018-08-16T06:11:31.285Z,12656.00
2018-08-16T06:12:31.938Z,12834.00
2018-08-16T06:13:31.742Z,13091.00
2018-08-16T06:14:31.521Z,13476.00
2018-08-16T06:15:31.581Z,13498.00
2018-08-16T06:16:31.378Z,13387.00
2018-08-16T06:17:52.572Z,13747.00
2018-08-16T06:18:53.278Z,13726.00
2018-08-16T06:20:14.868Z,14118.00
2018-08-16T06:21:15.564Z,14488.00
2018-08-16T06:22:15.296Z,14708.00
2018-08-16T06:23:14.833Z,14694.00
2018-08-16T06:24:36.767Z,14904.00
2018-08-16T06:25:37.447Z,15112.00
2018-08-16T06:26:37.245Z,15297.00
2018-08-16T06:27:58.475Z,15665.00
2018-08-16T06:28:59.323Z,15807.00
2018-08-16T06:29:58.966Z,16026.00
2018-08-16T06:30:58.829Z,16123.00
2018-08-16T06:31:58.462Z,16339.00
2018-08-16T06:32:59.519Z,16528.00
2018-08-16T06:33:59.249Z,16759.00
2018-08-16T06:34:58.891Z,17026.00
2018-08-16T06:35:58.925Z,17480.00
2018-08-16T06:36:58.453Z,17944.00
2018-08-16T06:37:59.350Z,18096.00
2018-08-16T06:38:59.304Z,18520.00
2018-08-16T06:39:59.165Z,18816.00
2018-08-16T06:40:59.772Z,19344.00
2018-08-16T06:41:58.847Z,19752.00
2018-08-16T06:43:20.365Z,20016.00
2018-08-16T06:44:41.880Z,21472.00
2018-08-16T06:45:42.738Z,22920.00
2018-08-16T06:47:03.906Z,24104.00
2018-08-16T06:48:05.098Z,24784.00
2018-08-16T06:49:03.921Z,27624.00
2018-08-16T06:50:29.324Z,30240.00
2018-08-16T06:51:29.572Z,32120.00
2018-08-16T06:52:29.605Z,32912.00
2018-08-16T06:53:29.625Z,33496.00
2018-08-16T06:54:29.385Z,48136.00
2018-08-16T06:55:29.024Z,35568.00
2018-08-16T06:56:30.472Z,38960.00
2018-08-16T06:57:29.464Z,33320.00
2018-08-16T06:58:31.052Z,31824.00
2018-08-16T06:59:31.817Z,28256.00
2018-08-16T07:00:29.694Z,25160.00
2018-08-16T07:01:29.953Z,21720.00
2018-08-16T07:02:29.672Z,20056.00
2018-08-16T07:03:29.337Z,19280.00
2018-08-16T07:04:29.031Z,18928.00
2018-08-16T07:06:05.468Z,19016.00
2018-08-16T07:07:05.404Z,19064.00
2018-08-16T07:08:05.453Z,19728.00
2018-08-16T07:09:05.350Z,20344.00
2018-08-16T07:10:06.297Z,20184.00
2018-08-16T07:11:06.326Z,19704.00
2018-08-16T07:12:05.431Z,19672.00
2018-08-16T07:13:05.653Z,20440.00
2018-08-16T07:14:49.016Z,20416.00
2018-08-16T07:15:49.711Z,20080.00
2018-08-16T07:16:49.495Z,20336.00
2018-08-16T07:17:53.470Z,20656.00
2018-08-16T07:18:49.051Z,20776.00
2018-08-16T07:19:50.195Z,20960.00
2018-08-16T07:20:49.159Z,21376.00
2018-08-16T07:21:50.459Z,21608.00
2018-08-16T07:22:51.087Z,22048.00
2018-08-16T07:23:49.872Z,22992.00
2018-08-16T07:24:49.570Z,23232.00
2018-08-16T07:25:49.380Z,23464.00
2018-08-16T07:26:49.122Z,25384.00
2018-08-16T07:27:50.285Z,26352.00
2018-08-16T07:28:50.443Z,26064.00
2018-08-16T07:29:49.408Z,25296.00
2018-08-16T07:30:49.199Z,25288.00
2018-08-16T07:31:50.278Z,26600.00
2018-08-16T07:32:49.549Z,26856.00
2018-08-16T07:33:49.569Z,27472.00
2018-08-16T07:34:49.088Z,28216.00
2018-08-16T07:35:49.776Z,28592.00
2018-08-16T07:36:49.756Z,28688.00
2018-08-16T07:37:49.513Z,28960.00
2018-08-16T07:40:16.397Z,28256.00
2018-08-16T07:41:17.082Z,28280.00
2018-08-16T07:42:16.749Z,28464.00
2018-08-16T07:43:38.751Z,27864.00
2018-08-16T07:44:38.723Z,27200.00
2018-08-16T07:45:38.919Z,27904.00
2018-08-16T07:46:38.462Z,29688.00
2018-08-16T07:47:39.452Z,30864.00
2018-08-16T07:48:39.843Z,30728.00
2018-08-16T07:49:38.941Z,30400.00
2018-08-16T07:50:39.275Z,31048.00
2018-08-16T07:51:39.580Z,33408.00
2018-08-16T07:53:00.161Z,34016.00
2018-08-16T07:54:00.873Z,32096.00
2018-08-16T07:55:00.484Z,31536.00
2018-08-16T07:56:01.295Z,32256.00
2018-08-16T07:57:01.488Z,30024.00
2018-08-16T07:58:07.176Z,28992.00
2018-08-16T07:59:01.128Z,29488.00
2018-08-16T08:00:11.688Z,32816.00
2018-08-16T08:01:23.187Z,34936.00
2018-08-16T08:02:22.801Z,33776.00
2018-08-16T08:03:44.071Z,32624.00
2018-08-16T08:04:44.845Z,34296.00
2018-08-16T08:05:44.976Z,38576.00
2018-08-16T08:06:44.791Z,48008.00
2018-08-16T08:07:44.680Z,44576.00
2018-08-16T08:08:44.999Z,45176.00
2018-08-16T08:09:45.197Z,50048.00
2018-08-16T08:10:44.372Z,63584.00
2018-08-16T08:11:44.542Z,52712.00
2018-08-16T08:12:44.520Z,65384.00
2018-08-16T08:13:44.512Z,65535.00
2018-08-16T08:14:44.214Z,54480.00
2018-08-16T08:15:45.247Z,65535.00
2018-08-16T08:16:44.395Z,65535.00
2018-08-16T08:17:44.021Z,54976.00
2018-08-16T08:18:44.596Z,59944.00
2018-08-16T08:19:44.558Z,65535.00
2018-08-16T08:20:44.460Z,52872.00
2018-08-16T08:21:44.361Z,53808.00
2018-08-16T08:23:06.097Z,64144.00
2018-08-16T08:24:05.870Z,57232.00
2018-08-16T08:25:05.781Z,65535.00
2018-08-16T08:26:28.560Z,65535.00
2018-08-16T08:27:29.728Z,65535.00
2018-08-16T08:28:28.619Z,65535.00
2018-08-16T08:29:30.162Z,65535.00
2018-08-16T08:30:29.020Z,65535.00
2018-08-16T08:31:28.840Z,65535.00
2018-08-16T08:32:28.654Z,65535.00
2018-08-16T08:33:29.734Z,62264.00
2018-08-16T08:34:28.499Z,54120.00
2018-08-16T08:35:29.197Z,52936.00
2018-08-16T08:36:29.255Z,57128.00
2018-08-16T08:37:28.943Z,62904.00
2018-08-16T08:38:28.858Z,65535.00
2018-08-16T08:39:28.657Z,65535.00
2018-08-16T08:40:29.944Z,65535.00
2018-08-16T08:41:29.125Z,65535.00
2018-08-16T08:42:50.377Z,65535.00
2018-08-16T08:43:51.143Z,65535.00
2018-08-16T08:44:50.952Z,65535.00
2018-08-16T08:46:55.688Z,65535.00
2018-08-16T08:47:56.758Z,65535.00
2018-08-16T08:48:56.791Z,65535.00
2018-08-16T08:49:56.642Z,65535.00
2018-08-16T08:51:39.448Z,65535.00
2018-08-16T08:52:40.202Z,26640.00
2018-08-16T08:53:40.369Z,65535.00
2018-08-16T08:54:40.565Z,65535.00
2018-08-16T08:55:39.875Z,65535.00
2018-08-16T08:56:39.597Z,65535.00
2018-08-16T08:57:42.827Z,47664.00
2018-08-16T08:59:50.975Z,65535.00
2018-08-16T09:00:49.048Z,65535.00
2018-08-16T09:01:49.064Z,45392.00
2018-08-16T09:02:49.208Z,56000.00
2018-08-16T09:03:48.940Z,65535.00
2018-08-16T09:04:50.736Z,65535.00
2018-08-16T09:05:49.636Z,65535.00
2018-08-16T09:07:10.383Z,65535.00
2018-08-16T09:50:23.143Z,65535.00
2018-08-16T09:51:23.047Z,65535.00
2018-08-16T09:52:22.939Z,65535.00
2018-08-16T09:53:22.700Z,65535.00
2018-08-16T09:54:22.557Z,65535.00
2018-08-16T09:55:23.751Z,65535.00
2018-08-16T09:56:22.484Z,65535.00
2018-08-16T09:57:44.947Z,65535.00
2018-08-16T09:58:45.457Z,65535.00
2018-08-16T09:59:45.284Z,65535.00
2018-08-16T10:00:58.789Z,65535.00
2018-08-16T10:01:45.589Z,65535.00
2018-08-16T10:02:45.507Z,65535.00
2018-08-16T10:03:45.127Z,65535.00
2018-08-16T10:04:44.894Z,52904.00
2018-08-16T10:05:45.693Z,65535.00
2018-08-16T10:06:45.248Z,65535.00
2018-08-16T10:07:45.066Z,65535.00
2018-08-16T10:08:45.350Z,65535.00
2018-08-16T10:09:46.424Z,65535.00
2018-08-16T10:10:45.256Z,65535.00
2018-08-16T10:11:45.418Z,65535.00
2018-08-16T10:12:45.145Z,65535.00
2018-08-16T10:13:44.902Z,65535.00
2018-08-16T10:14:45.623Z,65535.00
2018-08-16T10:15:45.256Z,65535.00
2018-08-16T10:16:45.175Z,65535.00
2018-08-16T10:17:45.036Z,65535.00
2018-08-16T10:18:44.755Z,65535.00
2018-08-16T10:19:45.485Z,65535.00
2018-08-16T10:20:45.356Z,65535.00
2018-08-16T10:21:45.396Z,65535.00
2018-08-16T10:22:45.082Z,38808.00
2018-08-16T10:23:44.992Z,53360.00
2018-08-16T10:24:45.652Z,65535.00
2018-08-16T10:25:45.407Z,44344.00
2018-08-16T10:26:45.232Z,65535.00
2018-08-16T10:27:45.373Z,65535.00
2018-08-16T10:28:45.095Z,65535.00
2018-08-16T10:29:44.811Z,65535.00
2018-08-16T10:30:45.621Z,65535.00
2018-08-16T10:32:06.934Z,65535.00
2018-08-16T10:33:07.604Z,65535.00
2018-08-16T10:34:07.340Z,65535.00
2018-08-16T10:35:28.768Z,65535.00
2018-08-16T10:36:28.944Z,65535.00
2018-08-16T10:37:28.964Z,65535.00
2018-08-16T10:38:29.070Z,65535.00
2018-08-16T10:39:28.713Z,65535.00
2018-08-16T10:40:28.630Z,65535.00
2018-08-16T10:41:29.783Z,65535.00
2018-08-16T10:42:28.510Z,65535.00
2018-08-16T10:43:29.263Z,65535.00
2018-08-16T10:44:28.912Z,65535.00
2018-08-16T10:45:28.477Z,65535.00
2018-08-16T10:46:29.845Z,65535.00
2018-08-16T10:47:28.863Z,65535.00
2018-08-16T10:48:28.668Z,65535.00
2018-08-16T10:49:28.394Z,65535.00
2018-08-16T10:50:29.306Z,65535.00
2018-08-16T10:51:29.314Z,65535.00
2018-08-16T10:52:29.014Z,65535.00
2018-08-16T10:53:29.172Z,65535.00
2018-08-16T10:54:50.693Z,65535.00
2018-08-16T10:55:53.451Z,65535.00
2018-08-16T10:57:14.307Z,65535.00
2018-08-16T10:58:14.292Z,65535.00
2018-08-16T10:59:14.427Z,65535.00
2018-08-16T11:00:13.611Z,65535.00
2018-08-16T11:01:16.510Z,65535.00
2018-08-16T11:02:13.338Z,65535.00
2018-08-16T11:03:13.211Z,65535.00
2018-08-16T11:04:13.109Z,65535.00
2018-08-16T11:05:13.845Z,65535.00
2018-08-16T11:06:14.669Z,65535.00
2018-08-16T11:07:13.849Z,65535.00
2018-08-16T11:08:13.624Z,65535.00
2018-08-16T11:09:13.289Z,65535.00
2018-08-16T11:10:14.080Z,65535.00
2018-08-16T11:11:14.333Z,65535.00
2018-08-16T11:12:14.194Z,65535.00
2018-08-16T11:13:14.579Z,65535.00
2018-08-16T11:14:13.571Z,65535.00
2018-08-16T11:15:13.415Z,65535.00
2018-08-16T11:16:13.172Z,32016.00
2018-08-16T11:17:13.762Z,65535.00
2018-08-16T11:18:14.035Z,65535.00
2018-08-16T11:19:13.652Z,65535.00
2018-08-16T11:20:13.416Z,65535.00
2018-08-16T11:21:13.116Z,65535.00
2018-08-16T11:22:13.766Z,65535.00
2018-08-16T11:23:56.482Z,65535.00
2018-08-16T11:24:57.624Z,65535.00
2018-08-16T11:26:19.272Z,65535.00
2018-08-16T11:27:19.456Z,65535.00
2018-08-16T11:28:19.278Z,65535.00
2018-08-16T11:29:40.434Z,65535.00
2018-08-16T11:30:41.583Z,65535.00
2018-08-16T11:31:41.194Z,65535.00
2018-08-16T11:32:40.753Z,65535.00
2018-08-16T11:33:40.603Z,65535.00
2018-08-16T11:34:41.385Z,65535.00
2018-08-16T11:35:41.747Z,65535.00
2018-08-16T11:36:41.301Z,65535.00
2018-08-16T11:37:41.416Z,65535.00
2018-08-16T11:38:41.158Z,65535.00
2018-08-16T11:39:40.845Z,65535.00
2018-08-16T11:40:40.811Z,57512.00
2018-08-16T11:41:41.000Z,65535.00
2018-08-16T11:42:40.809Z,65535.00
2018-08-16T11:43:40.840Z,65535.00
2018-08-16T11:44:40.622Z,65535.00
2018-08-16T11:45:41.224Z,65535.00
2018-08-16T11:46:40.996Z,65535.00
2018-08-16T11:47:40.967Z,65535.00
2018-08-16T11:48:40.682Z,65535.00
2018-08-16T11:49:41.550Z,65535.00
2018-08-16T11:50:41.597Z,65535.00
2018-08-16T11:51:42.074Z,65535.00
2018-08-16T11:52:40.843Z,65535.00
2018-08-16T11:53:40.959Z,65535.00
2018-08-16T11:54:40.917Z,65535.00
2018-08-16T11:55:40.854Z,65535.00
2018-08-16T11:56:41.594Z,65535.00
2018-08-16T11:58:04.117Z,65535.00
2018-08-16T11:59:05.333Z,65535.00
2018-08-16T12:00:04.989Z,65535.00
2018-08-16T12:01:28.533Z,65535.00
2018-08-16T12:02:50.495Z,65535.00
2018-08-16T12:04:25.360Z,65535.00
2018-08-16T12:05:20.036Z,65535.00
2018-08-16T12:06:21.074Z,65535.00
2018-08-16T12:07:20.207Z,65535.00
2018-08-16T12:08:20.474Z,65535.00
2018-08-16T12:09:21.652Z,65535.00
2018-08-16T12:10:20.273Z,65535.00
2018-08-16T12:11:40.643Z,65535.00
2018-08-16T12:12:41.821Z,65535.00
2018-08-16T12:13:42.980Z,54312.00
2018-08-16T12:15:04.955Z,65535.00
2018-08-16T12:16:04.969Z,65535.00
2018-08-16T12:17:05.143Z,65535.00
2018-08-16T12:18:05.806Z,65535.00
2018-08-16T12:19:04.958Z,65535.00
2018-08-16T12:20:27.628Z,65535.00
2018-08-16T12:21:26.977Z,65535.00
2018-08-16T12:22:26.970Z,65535.00
2018-08-16T12:23:26.901Z,65535.00
2018-08-16T12:24:30.432Z,65535.00
2018-08-16T12:25:27.072Z,65535.00
2018-08-16T12:26:27.136Z,65535.00
2018-08-16T12:27:27.323Z,65535.00
2018-08-16T12:28:27.257Z,65535.00
2018-08-16T12:29:27.248Z,65535.00
2018-08-16T12:30:27.776Z,65535.00
2018-08-16T12:31:27.461Z,65535.00
2018-08-16T12:32:27.881Z,65535.00
2018-08-16T12:33:26.915Z,65535.00
2018-08-16T12:34:27.204Z,65535.00
2018-08-16T12:36:12.872Z,65535.00
2018-08-16T12:37:34.787Z,65535.00
2018-08-16T12:38:35.005Z,65535.00
2018-08-16T12:39:57.022Z,65535.00
2018-08-16T12:40:57.554Z,65535.00
2018-08-16T12:41:57.549Z,65535.00
2018-08-16T12:42:57.879Z,65535.00
2018-08-16T12:43:57.681Z,65535.00
2018-08-16T12:44:58.304Z,65535.00
2018-08-16T12:45:58.806Z,65535.00
2018-08-16T12:46:57.687Z,65535.00
2018-08-16T12:47:58.763Z,65535.00
2018-08-16T12:48:57.356Z,65535.00
2018-08-16T12:49:56.934Z,65535.00
2018-08-16T12:50:58.615Z,65535.00
2018-08-16T12:51:57.921Z,65535.00
2018-08-16T12:52:57.823Z,65535.00
2018-08-16T12:53:57.584Z,65535.00
2018-08-16T12:54:57.719Z,65535.00
2018-08-16T12:55:58.587Z,65535.00
2018-08-16T12:56:57.420Z,65535.00
2018-08-16T12:58:05.138Z,65535.00
2018-08-16T12:58:57.071Z,65535.00
2018-08-16T13:00:01.837Z,65535.00
2018-08-16T13:01:23.435Z,65535.00
2018-08-16T13:02:21.192Z,65535.00
2018-08-16T13:03:21.891Z,65535.00
2018-08-16T13:05:05.675Z,65535.00
2018-08-16T13:06:05.407Z,65535.00
2018-08-16T13:07:06.063Z,65535.00
2018-08-16T13:08:06.071Z,65535.00
2018-08-16T13:09:06.152Z,65535.00
2018-08-16T13:10:05.931Z,65535.00
2018-08-16T13:11:05.977Z,65535.00
2018-08-16T13:12:06.166Z,65535.00
2018-08-16T13:13:06.355Z,65535.00
2018-08-16T13:14:06.161Z,65535.00
2018-08-16T13:15:06.124Z,65535.00
2018-08-16T13:16:06.042Z,65535.00
2018-08-16T13:17:06.084Z,65535.00
2018-08-16T13:18:06.058Z,61600.00
2018-08-16T13:19:05.890Z,65535.00
2018-08-16T13:20:06.163Z,65535.00
2018-08-16T13:21:06.315Z,65535.00
2018-08-16T13:22:05.288Z,65535.00
2018-08-16T13:23:10.037Z,64320.00
2018-08-16T13:24:09.508Z,60432.00
2018-08-16T13:25:05.725Z,63296.00
2018-08-16T13:26:05.870Z,65535.00
2018-08-16T13:27:06.362Z,65535.00
2018-08-16T13:28:05.245Z,65535.00
2018-08-16T13:29:06.074Z,64112.00
2018-08-16T13:30:05.723Z,65376.00
2018-08-16T13:31:05.612Z,62496.00
2018-08-16T13:32:05.763Z,63528.00
2018-08-16T13:33:05.847Z,65535.00
2018-08-16T13:34:07.024Z,65535.00
2018-08-16T13:35:06.181Z,65535.00
2018-08-16T13:36:06.343Z,65535.00
2018-08-16T13:37:05.872Z,65535.00